sensor_id;sensor_type;location;lat;lon;timestamp;temperature;humidity
14210;DHT22;7188;56.070;12.698;2023-01-20T00:02:01;3.00;1.00
14210;DHT22;7188;56.070;12.698;2023-01-20T00:04:48;2.90;1.00
14210;DHT22;7188;56.070;12.698;2023-01-20T00:07:43;2.80;1.00
14210;DHT22;7188;56.070;12.698;2023-01-20T00:10:49;2.90;1.00
14210;DHT22;7188;56.070;12.698;2023-01-20T00:13:56;3.00;1.00
14210;DHT22;7188;56.070;12.698;2023-01-20T00:16:27;3.00;1.00
14210;DHT22;7188;56.070;12.698;2023-01-20T00:19:29;2.90;1.00
14210;DHT22;7188;56.070;12.698;2023-01-20T00:22:37;2.90;1.00
14210;DHT22;7188;56.070;12.698;2023-01-20T00:25:46;2.90;1.00
14210;DHT22;7188;56.070;12.698;2023-01-20T00:28:37;2.90;28.80
14210;DHT22;7188;56.070;12.698;2023-01-20T00:31:48;2.90;37.40
14210;DHT22;7188;56.070;12.698;2023-01-20T00:34:58;2.80;33.70
14210;DHT22;7188;56.070;12.698;2023-01-20T00:37:52;3.10;99.90
14210;DHT22;7188;56.070;12.698;2023-01-20T00:40:56;3.10;99.90
14210;DHT22;7188;56.070;12.698;2023-01-20T00:44:26;3.10;99.90
14210;DHT22;7188;56.070;12.698;2023-01-20T00:47:16;3.20;99.90
14210;DHT22;7188;56.070;12.698;2023-01-20T00:50:36;3.20;99.90
14210;DHT22;7188;56.070;12.698;2023-01-20T00:53:44;3.30;99.90
14210;DHT22;7188;56.070;12.698;2023-01-20T00:56:43;3.20;99.90
14210;DHT22;7188;56.070;12.698;2023-01-20T00:59:31;3.40;99.90
14210;DHT22;7188;56.070;12.698;2023-01-20T01:02:08;3.30;99.90
14210;DHT22;7188;56.070;12.698;2023-01-20T01:04:42;3.00;99.90
14210;DHT22;7188;56.070;12.698;2023-01-20T01:07:23;3.00;99.90
14210;DHT22;7188;56.070;12.698;2023-01-20T01:10:12;3.00;99.90
14210;DHT22;7188;56.070;12.698;2023-01-20T01:13:14;3.20;99.90
14210;DHT22;7188;56.070;12.698;2023-01-20T01:16:15;3.30;99.90
14210;DHT22;7188;56.070;12.698;2023-01-20T01:19:22;3.30;99.90
14210;DHT22;7188;56.070;12.698;2023-01-20T01:22:50;3.30;99.90
14210;DHT22;7188;56.070;12.698;2023-01-20T01:25:41;3.10;99.90
14210;DHT22;7188;56.070;12.698;2023-01-20T01:28:28;3.30;99.90
14210;DHT22;7188;56.070;12.698;2023-01-20T01:31:31;3.40;99.90
14210;DHT22;7188;56.070;12.698;2023-01-20T01:34:08;3.10;99.90
14210;DHT22;7188;56.070;12.698;2023-01-20T01:37:39;3.20;99.90
14210;DHT22;7188;56.070;12.698;2023-01-20T01:40:47;3.20;99.90
14210;DHT22;7188;56.070;12.698;2023-01-20T01:43:38;3.10;99.90
14210;DHT22;7188;56.070;12.698;2023-01-20T01:46:53;3.20;99.90
14210;DHT22;7188;56.070;12.698;2023-01-20T01:49:45;3.10;99.90
14210;DHT22;7188;56.070;12.698;2023-01-20T01:52:30;3.00;99.90
14210;DHT22;7188;56.070;12.698;2023-01-20T01:55:26;3.00;99.90
14210;DHT22;7188;56.070;12.698;2023-01-20T01:58:23;2.90;25.60
14210;DHT22;7188;56.070;12.698;2023-01-20T02:01:33;2.80;25.20
14210;DHT22;7188;56.070;12.698;2023-01-20T02:04:15;2.80;81.90
14210;DHT22;7188;56.070;12.698;2023-01-20T02:07:10;2.80;48.90
14210;DHT22;7188;56.070;12.698;2023-01-20T02:10:15;2.80;64.00
14210;DHT22;7188;56.070;12.698;2023-01-20T02:13:02;2.90;99.90
14210;DHT22;7188;56.070;12.698;2023-01-20T02:18:42;3.10;99.90
14210;DHT22;7188;56.070;12.698;2023-01-20T02:32:04;3.00;99.90
14210;DHT22;7188;56.070;12.698;2023-01-20T02:34:12;2.90;99.90
14210;DHT22;7188;56.070;12.698;2023-01-20T02:39:38;2.80;99.90
14210;DHT22;7188;56.070;12.698;2023-01-20T02:42:13;2.70;99.90
14210;DHT22;7188;56.070;12.698;2023-01-20T02:45:24;2.80;99.90
14210;DHT22;7188;56.070;12.698;2023-01-20T02:50:45;2.60;99.90
14210;DHT22;7188;56.070;12.698;2023-01-20T02:53:14;2.60;99.90
14210;DHT22;7188;56.070;12.698;2023-01-20T02:55:52;2.60;99.90
14210;DHT22;7188;56.070;12.698;2023-01-20T02:58:41;2.80;99.90
14210;DHT22;7188;56.070;12.698;2023-01-20T03:01:21;2.80;99.90
14210;DHT22;7188;56.070;12.698;2023-01-20T03:03:54;2.70;99.90
14210;DHT22;7188;56.070;12.698;2023-01-20T03:06:47;2.80;99.90
14210;DHT22;7188;56.070;12.698;2023-01-20T03:09:20;2.80;99.90
14210;DHT22;7188;56.070;12.698;2023-01-20T03:11:55;2.80;99.90
14210;DHT22;7188;56.070;12.698;2023-01-20T03:14:23;2.70;99.90
14210;DHT22;7188;56.070;12.698;2023-01-20T03:16:50;2.50;74.40
14210;DHT22;7188;56.070;12.698;2023-01-20T03:19:17;2.60;99.90
14210;DHT22;7188;56.070;12.698;2023-01-20T03:21:43;2.60;99.90
14210;DHT22;7188;56.070;12.698;2023-01-20T03:24:20;2.80;99.90
14210;DHT22;7188;56.070;12.698;2023-01-20T03:26:47;2.60;99.90
14210;DHT22;7188;56.070;12.698;2023-01-20T03:29:13;2.80;99.90
14210;DHT22;7188;56.070;12.698;2023-01-20T03:31:50;2.60;99.90
14210;DHT22;7188;56.070;12.698;2023-01-20T03:34:21;2.70;99.90
14210;DHT22;7188;56.070;12.698;2023-01-20T03:36:52;2.50;99.90
14210;DHT22;7188;56.070;12.698;2023-01-20T03:39:19;2.50;99.90
14210;DHT22;7188;56.070;12.698;2023-01-20T03:47:16;2.60;99.90
14210;DHT22;7188;56.070;12.698;2023-01-20T03:52:48;2.70;99.90
14210;DHT22;7188;56.070;12.698;2023-01-20T03:55:23;2.70;99.90
14210;DHT22;7188;56.070;12.698;2023-01-20T03:57:57;2.70;99.90
14210;DHT22;7188;56.070;12.698;2023-01-20T04:00:30;2.70;99.90
14210;DHT22;7188;56.070;12.698;2023-01-20T04:03:07;2.70;99.90
14210;DHT22;7188;56.070;12.698;2023-01-20T04:05:35;3.00;99.90
14210;DHT22;7188;56.070;12.698;2023-01-20T04:08:06;2.90;99.90
14210;DHT22;7188;56.070;12.698;2023-01-20T04:10:34;2.80;99.90
14210;DHT22;7188;56.070;12.698;2023-01-20T04:13:01;2.80;99.90
14210;DHT22;7188;56.070;12.698;2023-01-20T04:15:28;2.80;99.90
14210;DHT22;7188;56.070;12.698;2023-01-20T04:18:10;2.60;99.90
14210;DHT22;7188;56.070;12.698;2023-01-20T04:20:36;2.70;99.90
14210;DHT22;7188;56.070;12.698;2023-01-20T04:23:05;2.60;99.90
14210;DHT22;7188;56.070;12.698;2023-01-20T04:25:31;2.60;99.90
14210;DHT22;7188;56.070;12.698;2023-01-20T04:27:59;2.70;99.90
14210;DHT22;7188;56.070;12.698;2023-01-20T04:30:25;2.50;99.90
14210;DHT22;7188;56.070;12.698;2023-01-20T04:32:50;2.60;99.90
14210;DHT22;7188;56.070;12.698;2023-01-20T04:35:18;2.50;99.90
14210;DHT22;7188;56.070;12.698;2023-01-20T04:37:44;2.60;99.90
14210;DHT22;7188;56.070;12.698;2023-01-20T04:40:10;2.80;99.90
14210;DHT22;7188;56.070;12.698;2023-01-20T04:42:37;2.70;99.90
14210;DHT22;7188;56.070;12.698;2023-01-20T04:45:04;2.70;99.90
14210;DHT22;7188;56.070;12.698;2023-01-20T04:47:33;2.70;99.90
14210;DHT22;7188;56.070;12.698;2023-01-20T04:50:00;2.60;99.90
14210;DHT22;7188;56.070;12.698;2023-01-20T04:52:26;2.60;99.90
14210;DHT22;7188;56.070;12.698;2023-01-20T04:54:51;2.70;99.90
14210;DHT22;7188;56.070;12.698;2023-01-20T04:57:18;2.60;99.90
14210;DHT22;7188;56.070;12.698;2023-01-20T04:59:44;2.50;99.90
14210;DHT22;7188;56.070;12.698;2023-01-20T05:02:09;2.40;99.90
14210;DHT22;7188;56.070;12.698;2023-01-20T05:04:35;2.50;99.90
14210;DHT22;7188;56.070;12.698;2023-01-20T05:07:02;2.60;99.90
14210;DHT22;7188;56.070;12.698;2023-01-20T05:09:28;2.60;99.90
14210;DHT22;7188;56.070;12.698;2023-01-20T05:11:53;2.70;99.90
14210;DHT22;7188;56.070;12.698;2023-01-20T05:14:19;2.80;99.90
14210;DHT22;7188;56.070;12.698;2023-01-20T05:16:44;2.80;99.90
14210;DHT22;7188;56.070;12.698;2023-01-20T05:19:11;2.70;99.90
14210;DHT22;7188;56.070;12.698;2023-01-20T05:21:37;2.80;99.90
14210;DHT22;7188;56.070;12.698;2023-01-20T05:24:03;2.80;99.90
14210;DHT22;7188;56.070;12.698;2023-01-20T05:26:29;2.60;99.90
14210;DHT22;7188;56.070;12.698;2023-01-20T05:28:56;2.80;99.90
14210;DHT22;7188;56.070;12.698;2023-01-20T05:31:21;2.90;99.90
14210;DHT22;7188;56.070;12.698;2023-01-20T05:33:59;3.10;99.90
14210;DHT22;7188;56.070;12.698;2023-01-20T05:36:25;3.10;99.90
14210;DHT22;7188;56.070;12.698;2023-01-20T05:38:53;3.10;99.90
14210;DHT22;7188;56.070;12.698;2023-01-20T05:41:19;3.10;99.90
14210;DHT22;7188;56.070;12.698;2023-01-20T05:43:45;3.10;99.90
14210;DHT22;7188;56.070;12.698;2023-01-20T05:46:11;3.20;99.90
14210;DHT22;7188;56.070;12.698;2023-01-20T05:48:37;3.60;99.90
14210;DHT22;7188;56.070;12.698;2023-01-20T05:51:13;3.50;99.90
14210;DHT22;7188;56.070;12.698;2023-01-20T05:53:38;3.30;99.90
14210;DHT22;7188;56.070;12.698;2023-01-20T05:56:06;3.50;99.90
14210;DHT22;7188;56.070;12.698;2023-01-20T05:58:33;3.40;99.90
14210;DHT22;7188;56.070;12.698;2023-01-20T06:01:07;3.40;99.90
14210;DHT22;7188;56.070;12.698;2023-01-20T06:03:35;3.20;99.90
14210;DHT22;7188;56.070;12.698;2023-01-20T06:06:02;3.00;99.90
14210;DHT22;7188;56.070;12.698;2023-01-20T06:08:33;3.00;99.90
14210;DHT22;7188;56.070;12.698;2023-01-20T06:11:01;3.00;99.90
14210;DHT22;7188;56.070;12.698;2023-01-20T06:13:26;2.90;99.90
14210;DHT22;7188;56.070;12.698;2023-01-20T06:15:53;3.00;99.90
14210;DHT22;7188;56.070;12.698;2023-01-20T06:18:22;2.90;99.90
14210;DHT22;7188;56.070;12.698;2023-01-20T06:20:49;2.90;99.90
14210;DHT22;7188;56.070;12.698;2023-01-20T06:23:15;2.90;99.90
14210;DHT22;7188;56.070;12.698;2023-01-20T06:25:41;3.00;99.90
14210;DHT22;7188;56.070;12.698;2023-01-20T06:28:07;3.00;99.90
14210;DHT22;7188;56.070;12.698;2023-01-20T06:30:34;3.20;99.90
14210;DHT22;7188;56.070;12.698;2023-01-20T06:33:01;3.10;99.90
14210;DHT22;7188;56.070;12.698;2023-01-20T06:35:26;3.10;99.90
14210;DHT22;7188;56.070;12.698;2023-01-20T06:37:56;3.00;99.90
14210;DHT22;7188;56.070;12.698;2023-01-20T06:40:24;3.00;99.90
14210;DHT22;7188;56.070;12.698;2023-01-20T06:42:49;3.30;99.90
14210;DHT22;7188;56.070;12.698;2023-01-20T06:45:36;3.30;99.90
14210;DHT22;7188;56.070;12.698;2023-01-20T06:48:11;3.20;99.90
14210;DHT22;7188;56.070;12.698;2023-01-20T06:51:28;3.00;99.90
14210;DHT22;7188;56.070;12.698;2023-01-20T06:54:16;3.10;99.90
14210;DHT22;7188;56.070;12.698;2023-01-20T06:57:06;3.30;99.90
14210;DHT22;7188;56.070;12.698;2023-01-20T07:00:03;3.20;99.90
14210;DHT22;7188;56.070;12.698;2023-01-20T07:03:29;3.30;99.90
14210;DHT22;7188;56.070;12.698;2023-01-20T07:06:27;3.30;99.90
14210;DHT22;7188;56.070;12.698;2023-01-20T07:09:00;3.40;1.00
14210;DHT22;7188;56.070;12.698;2023-01-20T07:11:27;3.50;1.00
14210;DHT22;7188;56.070;12.698;2023-01-20T07:13:55;3.40;99.90
14210;DHT22;7188;56.070;12.698;2023-01-20T07:16:29;3.40;1.00
14210;DHT22;7188;56.070;12.698;2023-01-20T07:19:11;3.20;99.90
14210;DHT22;7188;56.070;12.698;2023-01-20T07:21:57;3.10;99.90
14210;DHT22;7188;56.070;12.698;2023-01-20T07:24:23;3.40;1.00
14210;DHT22;7188;56.070;12.698;2023-01-20T07:26:52;3.60;1.00
14210;DHT22;7188;56.070;12.698;2023-01-20T07:29:21;3.40;1.00
14210;DHT22;7188;56.070;12.698;2023-01-20T07:31:47;3.30;1.00
14210;DHT22;7188;56.070;12.698;2023-01-20T07:34:13;3.40;1.00
14210;DHT22;7188;56.070;12.698;2023-01-20T07:36:38;3.50;1.00
14210;DHT22;7188;56.070;12.698;2023-01-20T07:39:04;3.30;1.00
14210;DHT22;7188;56.070;12.698;2023-01-20T07:41:29;3.20;99.90
14210;DHT22;7188;56.070;12.698;2023-01-20T07:43:55;3.00;99.90
14210;DHT22;7188;56.070;12.698;2023-01-20T07:46:21;2.90;99.90
14210;DHT22;7188;56.070;12.698;2023-01-20T07:48:46;3.00;1.00
14210;DHT22;7188;56.070;12.698;2023-01-20T07:51:14;3.10;1.00
14210;DHT22;7188;56.070;12.698;2023-01-20T07:53:45;3.30;1.00
14210;DHT22;7188;56.070;12.698;2023-01-20T07:56:18;3.90;1.00
14210;DHT22;7188;56.070;12.698;2023-01-20T07:58:44;4.20;1.00
14210;DHT22;7188;56.070;12.698;2023-01-20T08:01:12;4.40;1.00
14210;DHT22;7188;56.070;12.698;2023-01-20T08:03:39;4.20;1.00
14210;DHT22;7188;56.070;12.698;2023-01-20T08:06:06;4.10;1.00
14210;DHT22;7188;56.070;12.698;2023-01-20T08:08:32;3.80;99.90
14210;DHT22;7188;56.070;12.698;2023-01-20T08:10:59;3.60;99.90
14210;DHT22;7188;56.070;12.698;2023-01-20T08:13:29;3.70;1.00
14210;DHT22;7188;56.070;12.698;2023-01-20T08:15:58;3.70;1.00
14210;DHT22;7188;56.070;12.698;2023-01-20T08:18:23;3.80;1.00
14210;DHT22;7188;56.070;12.698;2023-01-20T08:20:49;3.70;1.00
14210;DHT22;7188;56.070;12.698;2023-01-20T08:23:15;3.80;1.00
14210;DHT22;7188;56.070;12.698;2023-01-20T08:25:58;3.70;99.90
14210;DHT22;7188;56.070;12.698;2023-01-20T08:28:50;3.70;99.90
14210;DHT22;7188;56.070;12.698;2023-01-20T08:31:26;3.70;1.00
14210;DHT22;7188;56.070;12.698;2023-01-20T08:33:53;3.90;1.00
14210;DHT22;7188;56.070;12.698;2023-01-20T08:36:22;4.00;1.00
14210;DHT22;7188;56.070;12.698;2023-01-20T08:38:48;4.10;1.00
14210;DHT22;7188;56.070;12.698;2023-01-20T08:41:16;4.00;1.00
14210;DHT22;7188;56.070;12.698;2023-01-20T08:44:04;4.30;1.00
14210;DHT22;7188;56.070;12.698;2023-01-20T08:46:47;4.30;99.90
14210;DHT22;7188;56.070;12.698;2023-01-20T08:49:16;4.10;99.90
14210;DHT22;7188;56.070;12.698;2023-01-20T08:51:43;3.90;99.90
14210;DHT22;7188;56.070;12.698;2023-01-20T08:54:10;3.50;99.90
14210;DHT22;7188;56.070;12.698;2023-01-20T08:56:35;3.70;99.90
14210;DHT22;7188;56.070;12.698;2023-01-20T08:59:02;3.80;99.90
14210;DHT22;7188;56.070;12.698;2023-01-20T09:01:31;3.70;99.90
14210;DHT22;7188;56.070;12.698;2023-01-20T09:04:00;3.50;99.90
14210;DHT22;7188;56.070;12.698;2023-01-20T09:06:26;3.50;99.90
14210;DHT22;7188;56.070;12.698;2023-01-20T09:08:52;3.60;99.90
14210;DHT22;7188;56.070;12.698;2023-01-20T09:11:20;3.90;99.90
14210;DHT22;7188;56.070;12.698;2023-01-20T09:13:46;3.80;99.90
14210;DHT22;7188;56.070;12.698;2023-01-20T09:16:14;3.70;99.90
14210;DHT22;7188;56.070;12.698;2023-01-20T09:18:40;3.70;99.90
14210;DHT22;7188;56.070;12.698;2023-01-20T09:21:06;3.60;99.90
14210;DHT22;7188;56.070;12.698;2023-01-20T09:23:33;3.60;99.90
14210;DHT22;7188;56.070;12.698;2023-01-20T09:26:00;3.50;99.90
14210;DHT22;7188;56.070;12.698;2023-01-20T09:28:27;3.60;99.90
14210;DHT22;7188;56.070;12.698;2023-01-20T09:30:59;4.10;1.00
14210;DHT22;7188;56.070;12.698;2023-01-20T09:33:26;4.50;1.00
14210;DHT22;7188;56.070;12.698;2023-01-20T09:35:53;4.60;1.00
14210;DHT22;7188;56.070;12.698;2023-01-20T09:38:20;4.40;99.90
14210;DHT22;7188;56.070;12.698;2023-01-20T09:41:28;4.20;99.90
14210;DHT22;7188;56.070;12.698;2023-01-20T09:44:42;4.10;99.90
14210;DHT22;7188;56.070;12.698;2023-01-20T09:52:36;4.20;99.90
14210;DHT22;7188;56.070;12.698;2023-01-20T09:55:58;4.30;99.90
14210;DHT22;7188;56.070;12.698;2023-01-20T09:58:46;4.50;99.90
14210;DHT22;7188;56.070;12.698;2023-01-20T10:01:20;4.30;99.90
14210;DHT22;7188;56.070;12.698;2023-01-20T10:09:32;4.70;99.90
14210;DHT22;7188;56.070;12.698;2023-01-20T10:12:25;4.40;99.90
14210;DHT22;7188;56.070;12.698;2023-01-20T10:15:23;4.50;99.90
14210;DHT22;7188;56.070;12.698;2023-01-20T10:18:08;4.60;99.90
14210;DHT22;7188;56.070;12.698;2023-01-20T10:20:50;4.80;99.90
14210;DHT22;7188;56.070;12.698;2023-01-20T10:28:43;4.70;1.00
14210;DHT22;7188;56.070;12.698;2023-01-20T10:31:13;4.30;99.90
14210;DHT22;7188;56.070;12.698;2023-01-20T10:33:45;4.30;1.00
14210;DHT22;7188;56.070;12.698;2023-01-20T10:36:30;4.30;1.00
14210;DHT22;7188;56.070;12.698;2023-01-20T10:39:37;4.30;1.00
14210;DHT22;7188;56.070;12.698;2023-01-20T10:42:17;4.40;1.00
14210;DHT22;7188;56.070;12.698;2023-01-20T10:44:45;4.30;1.00
14210;DHT22;7188;56.070;12.698;2023-01-20T10:58:25;4.40;1.00
14210;DHT22;7188;56.070;12.698;2023-01-20T11:01:05;4.40;1.00
14210;DHT22;7188;56.070;12.698;2023-01-20T11:03:39;4.50;1.00
14210;DHT22;7188;56.070;12.698;2023-01-20T11:06:07;4.40;1.00
14210;DHT22;7188;56.070;12.698;2023-01-20T11:08:35;4.60;1.00
14210;DHT22;7188;56.070;12.698;2023-01-20T11:11:23;4.60;1.00
14210;DHT22;7188;56.070;12.698;2023-01-20T11:13:50;4.50;1.00
14210;DHT22;7188;56.070;12.698;2023-01-20T11:16:20;4.50;1.00
14210;DHT22;7188;56.070;12.698;2023-01-20T11:19:03;4.40;1.00
14210;DHT22;7188;56.070;12.698;2023-01-20T11:21:31;4.70;1.00
14210;DHT22;7188;56.070;12.698;2023-01-20T11:23:59;4.90;1.00
14210;DHT22;7188;56.070;12.698;2023-01-20T11:26:36;4.80;1.00
14210;DHT22;7188;56.070;12.698;2023-01-20T11:31:43;4.70;1.00
14210;DHT22;7188;56.070;12.698;2023-01-20T11:34:33;4.70;99.90
14210;DHT22;7188;56.070;12.698;2023-01-20T11:39:31;4.90;99.90
14210;DHT22;7188;56.070;12.698;2023-01-20T11:42:20;5.20;1.00
14210;DHT22;7188;56.070;12.698;2023-01-20T11:44:50;5.20;99.90
14210;DHT22;7188;56.070;12.698;2023-01-20T11:52:35;5.20;99.90
14210;DHT22;7188;56.070;12.698;2023-01-20T11:55:18;5.00;1.00
14210;DHT22;7188;56.070;12.698;2023-01-20T11:57:56;5.00;99.90
14210;DHT22;7188;56.070;12.698;2023-01-20T12:00:39;5.00;1.00
14210;DHT22;7188;56.070;12.698;2023-01-20T12:08:38;5.00;1.00
14210;DHT22;7188;56.070;12.698;2023-01-20T12:11:08;4.90;99.90
14210;DHT22;7188;56.070;12.698;2023-01-20T12:13:42;5.10;99.90
14210;DHT22;7188;56.070;12.698;2023-01-20T12:16:29;5.20;99.90
14210;DHT22;7188;56.070;12.698;2023-01-20T12:19:01;5.00;1.00
14210;DHT22;7188;56.070;12.698;2023-01-20T12:21:33;5.10;99.90
14210;DHT22;7188;56.070;12.698;2023-01-20T12:24:22;5.20;99.90
14210;DHT22;7188;56.070;12.698;2023-01-20T12:26:49;5.00;1.00
14210;DHT22;7188;56.070;12.698;2023-01-20T12:29:39;4.90;1.00
14210;DHT22;7188;56.070;12.698;2023-01-20T12:32:09;5.00;1.00
14210;DHT22;7188;56.070;12.698;2023-01-20T12:34:35;5.20;99.90
14210;DHT22;7188;56.070;12.698;2023-01-20T12:48:19;5.10;99.90
14210;DHT22;7188;56.070;12.698;2023-01-20T12:57:45;5.20;99.90
14210;DHT22;7188;56.070;12.698;2023-01-20T13:19:01;4.90;13.60
14210;DHT22;7188;56.070;12.698;2023-01-20T13:21:32;4.70;99.90
14210;DHT22;7188;56.070;12.698;2023-01-20T13:24:02;4.80;1.00
14210;DHT22;7188;56.070;12.698;2023-01-20T13:26:45;4.80;99.90
14210;DHT22;7188;56.070;12.698;2023-01-20T13:29:40;4.80;52.00
14210;DHT22;7188;56.070;12.698;2023-01-20T13:34:57;4.90;1.00
14210;DHT22;7188;56.070;12.698;2023-01-20T13:37:50;5.00;1.00
14210;DHT22;7188;56.070;12.698;2023-01-20T13:42:57;5.10;99.90
14210;DHT22;7188;56.070;12.698;2023-01-20T13:45:24;5.20;1.00
14210;DHT22;7188;56.070;12.698;2023-01-20T13:50:34;4.80;1.00
14210;DHT22;7188;56.070;12.698;2023-01-20T13:53:02;4.70;1.00
14210;DHT22;7188;56.070;12.698;2023-01-20T13:58:17;4.70;1.00
14210;DHT22;7188;56.070;12.698;2023-01-20T14:00:54;4.50;99.90
14210;DHT22;7188;56.070;12.698;2023-01-20T14:03:27;4.50;1.00
14210;DHT22;7188;56.070;12.698;2023-01-20T14:06:17;4.50;1.00
14210;DHT22;7188;56.070;12.698;2023-01-20T14:13:36;4.60;1.00
14210;DHT22;7188;56.070;12.698;2023-01-20T14:16:02;4.60;8.20
14210;DHT22;7188;56.070;12.698;2023-01-20T14:18:29;4.60;99.90
14210;DHT22;7188;56.070;12.698;2023-01-20T14:23:34;4.90;99.90
14210;DHT22;7188;56.070;12.698;2023-01-20T14:26:03;4.70;1.00
14210;DHT22;7188;56.070;12.698;2023-01-20T14:28:30;4.80;99.90
14210;DHT22;7188;56.070;12.698;2023-01-20T14:31:17;4.70;99.90
14210;DHT22;7188;56.070;12.698;2023-01-20T14:36:52;4.70;1.00
14210;DHT22;7188;56.070;12.698;2023-01-20T14:39:24;4.70;1.00
14210;DHT22;7188;56.070;12.698;2023-01-20T14:41:58;4.40;1.00
14210;DHT22;7188;56.070;12.698;2023-01-20T14:44:30;4.20;99.90
14210;DHT22;7188;56.070;12.698;2023-01-20T14:47:00;4.10;1.00
14210;DHT22;7188;56.070;12.698;2023-01-20T14:49:31;4.10;1.00
14210;DHT22;7188;56.070;12.698;2023-01-20T14:51:58;4.10;1.00
14210;DHT22;7188;56.070;12.698;2023-01-20T14:57:31;4.50;99.90
14210;DHT22;7188;56.070;12.698;2023-01-20T15:00:13;4.40;65.80
14210;DHT22;7188;56.070;12.698;2023-01-20T15:02:41;4.70;1.00
14210;DHT22;7188;56.070;12.698;2023-01-20T15:05:29;4.60;99.90
14210;DHT22;7188;56.070;12.698;2023-01-20T15:16:29;4.60;1.00
14210;DHT22;7188;56.070;12.698;2023-01-20T15:21:52;4.10;99.90
14210;DHT22;7188;56.070;12.698;2023-01-20T15:24:38;3.90;99.90
14210;DHT22;7188;56.070;12.698;2023-01-20T15:27:22;3.80;99.90
14210;DHT22;7188;56.070;12.698;2023-01-20T15:30:19;3.80;1.00
14210;DHT22;7188;56.070;12.698;2023-01-20T15:32:49;4.00;1.00
14210;DHT22;7188;56.070;12.698;2023-01-20T15:35:17;4.20;1.00
14210;DHT22;7188;56.070;12.698;2023-01-20T15:37:45;4.10;1.00
14210;DHT22;7188;56.070;12.698;2023-01-20T15:40:19;3.90;1.00
14210;DHT22;7188;56.070;12.698;2023-01-20T15:42:47;3.70;1.00
14210;DHT22;7188;56.070;12.698;2023-01-20T15:45:14;3.60;1.00
14210;DHT22;7188;56.070;12.698;2023-01-20T15:47:41;3.40;1.00
14210;DHT22;7188;56.070;12.698;2023-01-20T15:50:18;3.50;1.00
14210;DHT22;7188;56.070;12.698;2023-01-20T15:52:44;3.40;1.00
14210;DHT22;7188;56.070;12.698;2023-01-20T15:55:32;3.40;1.00
14210;DHT22;7188;56.070;12.698;2023-01-20T15:57:58;3.60;1.00
14210;DHT22;7188;56.070;12.698;2023-01-20T16:00:24;3.50;1.00
14210;DHT22;7188;56.070;12.698;2023-01-20T16:02:49;3.50;1.00
14210;DHT22;7188;56.070;12.698;2023-01-20T16:05:15;3.60;1.00
14210;DHT22;7188;56.070;12.698;2023-01-20T16:07:41;3.70;1.00
14210;DHT22;7188;56.070;12.698;2023-01-20T16:10:13;3.60;1.00
14210;DHT22;7188;56.070;12.698;2023-01-20T16:12:40;3.80;17.70
14210;DHT22;7188;56.070;12.698;2023-01-20T16:15:20;3.60;1.00
14210;DHT22;7188;56.070;12.698;2023-01-20T16:17:46;3.30;1.00
14210;DHT22;7188;56.070;12.698;2023-01-20T16:20:23;3.30;1.00
14210;DHT22;7188;56.070;12.698;2023-01-20T16:22:50;3.10;1.00
14210;DHT22;7188;56.070;12.698;2023-01-20T16:25:16;3.00;1.00
14210;DHT22;7188;56.070;12.698;2023-01-20T16:27:42;2.90;1.00
14210;DHT22;7188;56.070;12.698;2023-01-20T16:30:22;2.90;1.00
14210;DHT22;7188;56.070;12.698;2023-01-20T16:32:48;2.80;1.00
14210;DHT22;7188;56.070;12.698;2023-01-20T16:35:15;2.80;1.00
14210;DHT22;7188;56.070;12.698;2023-01-20T16:37:43;2.80;1.00
14210;DHT22;7188;56.070;12.698;2023-01-20T16:40:17;2.70;1.00
14210;DHT22;7188;56.070;12.698;2023-01-20T16:42:43;2.70;1.00
14210;DHT22;7188;56.070;12.698;2023-01-20T16:45:30;2.70;14.30
14210;DHT22;7188;56.070;12.698;2023-01-20T16:47:56;2.70;18.00
14210;DHT22;7188;56.070;12.698;2023-01-20T16:50:22;2.60;28.10
14210;DHT22;7188;56.070;12.698;2023-01-20T16:52:50;2.60;42.80
14210;DHT22;7188;56.070;12.698;2023-01-20T16:55:16;2.60;59.10
14210;DHT22;7188;56.070;12.698;2023-01-20T16:57:42;2.60;99.90
14210;DHT22;7188;56.070;12.698;2023-01-20T17:00:08;2.60;99.90
14210;DHT22;7188;56.070;12.698;2023-01-20T17:02:58;2.60;99.90
14210;DHT22;7188;56.070;12.698;2023-01-20T17:05:26;2.60;99.90
14210;DHT22;7188;56.070;12.698;2023-01-20T17:07:53;2.60;99.90
14210;DHT22;7188;56.070;12.698;2023-01-20T17:10:21;2.60;99.90
14210;DHT22;7188;56.070;12.698;2023-01-20T17:12:47;2.60;99.90
14210;DHT22;7188;56.070;12.698;2023-01-20T17:15:13;2.70;99.90
14210;DHT22;7188;56.070;12.698;2023-01-20T17:17:41;2.60;99.90
14210;DHT22;7188;56.070;12.698;2023-01-20T17:20:07;2.60;99.90
14210;DHT22;7188;56.070;12.698;2023-01-20T17:22:37;2.50;99.90
14210;DHT22;7188;56.070;12.698;2023-01-20T17:25:05;2.50;99.90
14210;DHT22;7188;56.070;12.698;2023-01-20T17:27:31;2.50;99.90
14210;DHT22;7188;56.070;12.698;2023-01-20T17:30:04;2.40;99.90
14210;DHT22;7188;56.070;12.698;2023-01-20T17:32:32;2.50;99.90
14210;DHT22;7188;56.070;12.698;2023-01-20T17:34:58;2.50;99.90
14210;DHT22;7188;56.070;12.698;2023-01-20T17:37:24;2.40;99.90
14210;DHT22;7188;56.070;12.698;2023-01-20T17:39:49;2.40;99.90
14210;DHT22;7188;56.070;12.698;2023-01-20T17:42:15;2.40;99.90
14210;DHT22;7188;56.070;12.698;2023-01-20T17:44:41;2.40;99.90
14210;DHT22;7188;56.070;12.698;2023-01-20T17:47:07;2.40;99.90
14210;DHT22;7188;56.070;12.698;2023-01-20T17:49:32;2.40;99.90
14210;DHT22;7188;56.070;12.698;2023-01-20T17:51:58;2.40;99.90
14210;DHT22;7188;56.070;12.698;2023-01-20T17:54:24;2.30;99.90
14210;DHT22;7188;56.070;12.698;2023-01-20T17:56:49;2.30;99.90
14210;DHT22;7188;56.070;12.698;2023-01-20T17:59:15;2.20;99.90
14210;DHT22;7188;56.070;12.698;2023-01-20T18:01:41;2.30;99.90
14210;DHT22;7188;56.070;12.698;2023-01-20T18:04:07;2.30;99.90
14210;DHT22;7188;56.070;12.698;2023-01-20T18:06:38;2.10;99.90
14210;DHT22;7188;56.070;12.698;2023-01-20T18:09:06;2.10;99.90
14210;DHT22;7188;56.070;12.698;2023-01-20T18:11:34;2.10;99.90
14210;DHT22;7188;56.070;12.698;2023-01-20T18:14:01;2.00;99.90
14210;DHT22;7188;56.070;12.698;2023-01-20T18:16:37;2.00;99.90
14210;DHT22;7188;56.070;12.698;2023-01-20T18:19:04;1.90;99.90
14210;DHT22;7188;56.070;12.698;2023-01-20T18:21:31;1.90;99.90
14210;DHT22;7188;56.070;12.698;2023-01-20T18:24:13;1.80;99.90
14210;DHT22;7188;56.070;12.698;2023-01-20T18:26:39;1.70;99.90
14210;DHT22;7188;56.070;12.698;2023-01-20T18:29:18;1.70;99.90
14210;DHT22;7188;56.070;12.698;2023-01-20T18:31:44;1.60;99.90
14210;DHT22;7188;56.070;12.698;2023-01-20T18:34:13;1.60;99.90
14210;DHT22;7188;56.070;12.698;2023-01-20T18:36:44;1.60;99.90
14210;DHT22;7188;56.070;12.698;2023-01-20T18:39:17;1.60;99.90
14210;DHT22;7188;56.070;12.698;2023-01-20T18:41:43;1.40;99.90
14210;DHT22;7188;56.070;12.698;2023-01-20T18:44:09;1.50;99.90
14210;DHT22;7188;56.070;12.698;2023-01-20T18:46:35;1.40;99.90
14210;DHT22;7188;56.070;12.698;2023-01-20T18:49:02;1.40;99.90
14210;DHT22;7188;56.070;12.698;2023-01-20T18:51:28;1.30;99.90
14210;DHT22;7188;56.070;12.698;2023-01-20T18:56:20;1.10;99.90
14210;DHT22;7188;56.070;12.698;2023-01-20T18:58:47;1.10;99.90
14210;DHT22;7188;56.070;12.698;2023-01-20T19:01:16;1.10;99.90
14210;DHT22;7188;56.070;12.698;2023-01-20T19:03:42;1.00;99.90
14210;DHT22;7188;56.070;12.698;2023-01-20T19:08:42;1.20;99.90